Time;durP1;ratioP1;P1;durP2;ratioP2;P2;SDS_P1;SDS_P2;PMS_P1;PMS_P2;Temp;Humidity;BMP_temperature;BMP_pressure;BME280_temperature;BME280_humidity;BME280_pressure;Samples;Min_cycle;Max_cycle;Signal;HPM_P1;HPM_P2
2023/11/01 00:04:02;;;;;;;;;;;;;;;6.48;77.10;99963.28;5021811;28;20008;-63
2023/11/01 00:06:29;;;;;;;;;;;;;;;6.48;77.89;99965.91;5025542;28;20411;-63
2023/11/01 00:08:57;;;;;;;;;;;;;;;6.52;77.76;99965.66;5028168;28;19979;-63
2023/11/01 00:11:53;;;;;;;;;;;;;;;6.59;77.89;99971.44;5031442;28;19957;-63
2023/11/01 00:15:10;;;;;;;;;;;;;;;6.60;77.42;99973.97;5036525;28;20014;-64
2023/11/01 00:18:28;;;;;;;;;;;;;;;6.65;78.01;99972.88;5038330;28;19932;-64
2023/11/01 00:27:12;;;;;;;;;;;;;;;6.77;77.71;99970.44;5036848;28;19948;-63
2023/11/01 00:29:39;;;;;;;;;;;;;;;6.79;77.69;99976.44;5029638;28;20447;-63
2023/11/01 00:32:12;;;;;;;;;;;;;;;6.83;78.05;99971.88;5036672;28;19975;-64
2023/11/01 00:34:39;;;;;;;;;;;;;;;6.65;77.73;99986.78;5032413;28;19932;-64
2023/11/01 00:40:32;;;;;;;;;;;;;;;6.70;78.16;99974.31;5034202;28;20008;-62
2023/11/01 00:43:47;;;;;;;;;;;;;;;6.74;76.64;99982.84;5044957;28;19943;-63
2023/11/01 00:46:15;;;;;;;;;;;;;;;6.77;77.44;99987.94;5033541;28;19937;-64
2023/11/01 00:48:42;;;;;;;;;;;;;;;6.83;76.86;99990.19;5039207;28;19925;-64
2023/11/01 00:51:34;;;;;;;;;;;;;;;6.81;77.42;100003.38;5030818;28;19941;-64
2023/11/01 00:54:26;;;;;;;;;;;;;;;6.86;76.97;100003.13;5029998;28;19943;-64
2023/11/01 00:56:54;;;;;;;;;;;;;;;6.83;76.91;100011.97;5036655;28;20008;-64
2023/11/01 00:59:22;;;;;;;;;;;;;;;6.85;76.67;99998.84;5033886;28;19972;-64
2023/11/01 01:05:09;;;;;;;;;;;;;;;6.95;76.89;99993.94;5026690;28;19967;-63
2023/11/01 01:07:36;;;;;;;;;;;;;;;6.93;76.56;99996.63;5050725;28;19925;-64
2023/11/01 01:10:05;;;;;;;;;;;;;;;6.90;76.49;100001.19;5032358;28;19965;-64
2023/11/01 01:12:32;;;;;;;;;;;;;;;6.85;76.93;99983.97;5031199;28;19929;-63
2023/11/01 01:18:20;;;;;;;;;;;;;;;6.80;75.80;99987.78;5020985;28;20012;-64
2023/11/01 01:20:47;;;;;;;;;;;;;;;6.73;75.69;99995.09;5018822;28;20379;-64
2023/11/01 01:23:14;;;;;;;;;;;;;;;6.77;76.66;99988.75;5014064;28;19987;-62
2023/11/01 01:25:42;;;;;;;;;;;;;;;6.84;76.64;99994.50;5017652;28;19925;-62
2023/11/01 01:28:09;;;;;;;;;;;;;;;6.87;77.51;99999.56;5022671;28;19956;-62
2023/11/01 01:30:36;;;;;;;;;;;;;;;6.80;76.79;99996.47;5027256;28;20002;-62
2023/11/01 01:33:04;;;;;;;;;;;;;;;6.86;77.52;99992.66;5030663;28;19929;-62
2023/11/01 01:35:31;;;;;;;;;;;;;;;6.91;77.96;99995.03;5027416;28;20011;-62
2023/11/01 01:37:58;;;;;;;;;;;;;;;6.88;76.46;100000.41;5023645;28;19936;-62
2023/11/01 01:40:51;;;;;;;;;;;;;;;6.85;77.12;99993.59;5022383;28;20211;-62
2023/11/01 01:44:08;;;;;;;;;;;;;;;6.93;77.21;99993.16;5024162;28;20383;-62
2023/11/01 01:46:35;;;;;;;;;;;;;;;6.96;76.53;99993.00;5018163;28;19932;-61
2023/11/01 01:52:05;;;;;;;;;;;;;;;6.93;75.44;99986.16;5024954;28;20135;-61
2023/11/01 01:54:58;;;;;;;;;;;;;;;6.99;76.48;99988.47;5022212;28;19989;-61
2023/11/01 01:58:13;;;;;;;;;;;;;;;7.08;76.51;99987.13;5021309;28;19924;-60
2023/11/01 02:00:41;;;;;;;;;;;;;;;7.15;77.38;99979.75;5021605;28;20383;-61
2023/11/01 02:03:08;;;;;;;;;;;;;;;7.21;77.19;99989.91;5026305;28;20063;-61
2023/11/01 02:05:37;;;;;;;;;;;;;;;7.24;77.69;99987.09;5033414;28;19933;-61
2023/11/01 02:08:04;;;;;;;;;;;;;;;7.26;77.61;99988.72;5038936;28;20248;-61
2023/11/01 02:10:31;;;;;;;;;;;;;;;7.28;77.37;99992.09;5034534;28;20387;-61
2023/11/01 02:13:11;;;;;;;;;;;;;;;7.30;77.47;99987.63;5025551;28;20036;-61
2023/11/01 02:15:42;;;;;;;;;;;;;;;7.33;77.93;99983.97;5034011;28;19926;-61
2023/11/01 02:18:09;;;;;;;;;;;;;;;7.34;77.99;99983.91;5036278;28;19925;-61
2023/11/01 02:20:38;;;;;;;;;;;;;;;7.35;77.81;99988.22;5041511;28;20374;-62
2023/11/01 02:23:11;;;;;;;;;;;;;;;7.32;78.38;99990.16;5032309;28;19926;-61
2023/11/01 02:25:39;;;;;;;;;;;;;;;7.30;78.35;99990.25;5029670;28;19956;-61
2023/11/01 02:28:07;;;;;;;;;;;;;;;7.32;79.20;99995.38;5035306;28;19997;-61
2023/11/01 02:30:34;;;;;;;;;;;;;;;7.33;79.15;99990.06;5033445;28;19933;-61
2023/11/01 02:36:44;;;;;;;;;;;;;;;7.35;81.63;99982.13;5038234;28;19968;-61
2023/11/01 02:39:11;;;;;;;;;;;;;;;7.37;81.40;99980.25;5032070;28;19942;-62
2023/11/01 02:41:38;;;;;;;;;;;;;;;7.36;81.73;99978.56;5048514;28;19952;-62
2023/11/01 02:44:09;;;;;;;;;;;;;;;7.39;82.08;99980.19;5041123;28;20311;-62
2023/11/01 02:46:36;;;;;;;;;;;;;;;7.37;82.01;99977.63;5037426;28;19933;-62
2023/11/01 02:49:05;;;;;;;;;;;;;;;7.30;82.48;99978.94;5037007;28;20380;-62
2023/11/01 02:52:00;;;;;;;;;;;;;;;7.27;82.50;99977.31;5038804;28;19929;-61
2023/11/01 02:55:00;;;;;;;;;;;;;;;7.29;82.31;99979.84;5035180;28;19925;-61
2023/11/01 02:58:20;;;;;;;;;;;;;;;7.29;81.73;99979.84;5035733;28;19956;-61
2023/11/01 03:00:52;;;;;;;;;;;;;;;7.31;81.00;99978.84;5036058;28;19929;-61
2023/11/01 03:03:32;;;;;;;;;;;;;;;7.32;81.24;99984.91;5038207;28;20350;-60
2023/11/01 03:22:35;;;;;;;;;;;;;;;7.31;81.23;99997.16;5027432;28;19924;-62
2023/11/01 03:25:27;;;;;;;;;;;;;;;7.32;81.59;99988.38;5025022;28;19967;-62
2023/11/01 03:28:42;;;;;;;;;;;;;;;7.35;81.88;99980.34;5047314;28;20011;-61
2023/11/01 03:31:13;;;;;;;;;;;;;;;7.34;81.10;99981.28;5038306;28;19944;-61
2023/11/01 03:34:29;;;;;;;;;;;;;;;7.33;82.80;99978.75;5030208;28;19949;-61
2023/11/01 03:36:59;;;;;;;;;;;;;;;7.33;85.17;99982.19;5027496;28;19948;-61
2023/11/01 03:42:26;;;;;;;;;;;;;;;7.32;87.61;99996.22;5034613;28;19925;-61
2023/11/01 03:44:53;;;;;;;;;;;;;;;7.32;87.06;99985.75;5050601;28;19926;-63
2023/11/01 03:47:20;;;;;;;;;;;;;;;7.32;87.84;99990.16;5028312;28;20323;-64
2023/11/01 03:49:49;;;;;;;;;;;;;;;7.29;88.02;99993.75;5032872;28;19929;-61
2023/11/01 03:55:39;;;;;;;;;;;;;;;7.24;87.82;100005.44;5031995;28;19949;-63
2023/11/01 03:58:10;;;;;;;;;;;;;;;7.22;87.93;99997.66;5038813;28;19937;-63
2023/11/01 04:00:42;;;;;;;;;;;;;;;7.23;87.55;100001.97;5033770;28;19968;-63
2023/11/01 04:03:36;;;;;;;;;;;;;;;7.25;88.48;99999.25;5036599;28;19925;-63
2023/11/01 04:06:52;;;;;;;;;;;;;;;7.21;88.55;100009.06;5026900;28;20371;-63
2023/11/01 04:09:19;;;;;;;;;;;;;;;7.22;88.24;100000.28;5018177;28;20041;-62
2023/11/01 04:11:46;;;;;;;;;;;;;;;7.20;87.99;99996.88;5021840;28;20000;-63
2023/11/01 04:14:14;;;;;;;;;;;;;;;7.24;88.14;100000.19;5028167;28;19957;-61
2023/11/01 04:16:43;;;;;;;;;;;;;;;7.24;87.88;99995.78;5023975;28;20020;-63
2023/11/01 04:32:06;;;;;;;;;;;;;;;7.24;86.84;99987.09;5027258;28;19926;-62
2023/11/01 04:35:00;;;;;;;;;;;;;;;7.26;86.81;99982.66;5028070;28;19933;-61
2023/11/01 04:37:32;;;;;;;;;;;;;;;7.27;86.86;99982.53;5032118;28;19925;-61
2023/11/01 04:39:59;;;;;;;;;;;;;;;7.27;86.65;99971.22;5033214;28;19952;-62
2023/11/01 04:42:26;;;;;;;;;;;;;;;7.29;87.24;99970.19;5032196;28;20005;-62
2023/11/01 04:44:56;;;;;;;;;;;;;;;7.30;86.67;99965.84;5027014;28;19953;-65
2023/11/01 04:47:23;;;;;;;;;;;;;;;7.32;85.78;99966.59;5031306;28;20028;-63
2023/11/01 04:49:51;;;;;;;;;;;;;;;7.34;85.98;99962.13;5024623;28;19925;-63
2023/11/01 04:52:42;;;;;;;;;;;;;;;7.33;86.03;99966.47;5033643;28;19983;-63
2023/11/01 04:55:12;;;;;;;;;;;;;;;7.40;86.85;99974.00;5018540;28;19932;-63
2023/11/01 04:57:39;;;;;;;;;;;;;;;7.39;86.57;99975.78;5026386;28;19972;-61
2023/11/01 05:00:15;;;;;;;;;;;;;;;7.43;86.86;99982.56;5022025;28;20303;-60
2023/11/01 05:02:47;;;;;;;;;;;;;;;7.41;86.43;99976.53;5023330;28;19976;-60
2023/11/01 05:05:41;;;;;;;;;;;;;;;7.39;87.67;99973.19;5028941;28;20008;-61
2023/11/01 05:08:32;;;;;;;;;;;;;;;7.36;88.14;99968.94;5028223;28;19974;-60
2023/11/01 05:11:00;;;;;;;;;;;;;;;7.33;88.27;99960.41;5024869;28;20375;-60
2023/11/01 05:13:27;;;;;;;;;;;;;;;7.39;88.17;99959.25;5020704;28;19925;-61
2023/11/01 05:15:54;;;;;;;;;;;;;;;7.41;88.22;99962.59;5024063;28;20353;-63
2023/11/01 05:18:47;;;;;;;;;;;;;;;7.41;88.63;99958.22;5026149;28;19987;-61
2023/11/01 05:21:42;;;;;;;;;;;;;;;7.44;89.82;99963.28;5015996;28;19979;-61
2023/11/01 05:24:14;;;;;;;;;;;;;;;7.46;89.59;99960.56;5024721;28;19933;-63
2023/11/01 05:26:41;;;;;;;;;;;;;;;7.45;89.53;99961.50;5030670;28;19925;-63
2023/11/01 05:29:08;;;;;;;;;;;;;;;7.45;90.34;99957.09;5030894;28;20014;-62
2023/11/01 05:31:35;;;;;;;;;;;;;;;7.49;89.72;99958.63;5025045;28;19972;-62
2023/11/01 05:34:02;;;;;;;;;;;;;;;7.47;89.82;99952.63;5029672;28;19929;-62
2023/11/01 05:40:14;;;;;;;;;;;;;;;7.50;90.11;99962.09;5023661;28;20459;-62
2023/11/01 05:43:06;;;;;;;;;;;;;;;7.53;90.61;99965.38;5026756;28;20456;-62
2023/11/01 05:46:23;;;;;;;;;;;;;;;7.55;91.00;99976.59;5033748;28;19924;-62
2023/11/01 05:59:09;;;;;;;;;;;;;;;7.61;91.16;99985.91;5028970;28;19960;-62
2023/11/01 06:01:36;;;;;;;;;;;;;;;7.61;91.24;99978.88;5024205;28;20313;-62
2023/11/01 06:04:10;;;;;;;;;;;;;;;7.61;91.69;99984.13;5028197;28;20375;-61
2023/11/01 06:06:40;;;;;;;;;;;;;;;7.68;91.26;99983.78;5017154;28;19991;-62
2023/11/01 06:12:26;;;;;;;;;;;;;;;7.73;91.48;99985.19;5028007;28;19932;-62
2023/11/01 06:14:55;;;;;;;;;;;;;;;7.74;92.31;99981.63;5016939;28;20058;-63
2023/11/01 06:24:03;;;;;;;;;;;;;;;7.78;91.66;99982.31;5026995;28;20017;-62
2023/11/01 06:26:31;;;;;;;;;;;;;;;7.75;92.24;99982.50;5028053;28;19948;-62
2023/11/01 06:29:01;;;;;;;;;;;;;;;7.77;92.08;99985.84;5027796;28;20033;-62
2023/11/01 06:31:31;;;;;;;;;;;;;;;7.77;92.96;99983.25;5024109;28;19925;-61
2023/11/01 06:34:07;;;;;;;;;;;;;;;7.77;93.24;99983.25;5022316;28;19965;-62
2023/11/01 06:36:34;;;;;;;;;;;;;;;7.77;93.35;99983.25;5018191;28;19926;-62
2023/11/01 06:39:49;;;;;;;;;;;;;;;7.83;93.23;99993.34;5028598;28;19928;-62
2023/11/01 06:42:45;;;;;;;;;;;;;;;7.81;92.93;99988.22;5031132;28;20522;-62
2023/11/01 06:45:12;;;;;;;;;;;;;;;7.84;93.01;99992.44;5041351;28;20291;-62
2023/11/01 06:47:39;;;;;;;;;;;;;;;7.86;93.01;99993.19;5037675;28;19929;-61
2023/11/01 06:50:08;;;;;;;;;;;;;;;7.87;92.92;99992.25;5035980;28;19932;-62
2023/11/01 06:52:36;;;;;;;;;;;;;;;7.93;91.81;99997.16;5029893;28;20125;-62
2023/11/01 06:55:04;;;;;;;;;;;;;;;7.98;92.15;99994.28;5024758;28;19995;-62
2023/11/01 07:03:40;;;;;;;;;;;;;;;7.99;92.04;100001.19;5030272;28;19933;-62
2023/11/01 07:06:08;;;;;;;;;;;;;;;8.04;92.11;99994.75;5033232;28;19983;-62
2023/11/01 07:08:35;;;;;;;;;;;;;;;8.07;92.47;99993.72;5028267;28;19960;-62
2023/11/01 07:11:06;;;;;;;;;;;;;;;8.11;92.77;99987.38;5026343;28;19925;-61
2023/11/01 07:13:57;;;;;;;;;;;;;;;8.14;92.58;99984.56;5023161;28;19980;-60
2023/11/01 07:16:24;;;;;;;;;;;;;;;8.18;92.50;99985.22;5023167;28;19932;-63
2023/11/01 07:18:51;;;;;;;;;;;;;;;8.22;92.45;99986.72;5029785;28;20003;-60
2023/11/01 07:21:44;;;;;;;;;;;;;;;8.22;92.60;99984.94;5042095;28;19987;-63
2023/11/01 07:25:00;;;;;;;;;;;;;;;8.27;93.20;99979.44;5020473;28;19992;-62
2023/11/01 07:31:10;;;;;;;;;;;;;;;8.34;93.44;99978.97;5028251;28;19932;-61
2023/11/01 07:34:03;;;;;;;;;;;;;;;8.41;92.95;99982.09;5036256;28;20456;-61
2023/11/01 07:37:20;;;;;;;;;;;;;;;8.39;93.58;99977.91;5032667;28;19932;-61
2023/11/01 07:40:35;;;;;;;;;;;;;;;8.48;92.81;99979.97;5038464;28;19923;-61
2023/11/01 07:46:48;;;;;;;;;;;;;;;8.61;92.68;99973.88;5040335;28;19939;-63
2023/11/01 07:49:41;;;;;;;;;;;;;;;8.65;92.50;99977.16;5041024;28;19925;-61
2023/11/01 07:52:10;;;;;;;;;;;;;;;8.73;92.11;99979.28;5033260;28;19933;-62
2023/11/01 07:54:39;;;;;;;;;;;;;;;8.86;92.37;99977.59;5042093;28;19956;-61
2023/11/01 07:57:32;;;;;;;;;;;;;;;8.98;92.20;99968.97;5033709;28;19968;-62
2023/11/01 07:59:59;;;;;;;;;;;;;;;9.22;91.25;99965.72;5043605;28;19992;-61
2023/11/01 08:02:27;;;;;;;;;;;;;;;9.25;90.14;99960.28;5035989;28;19968;-61
2023/11/01 08:05:20;;;;;;;;;;;;;;;9.36;90.27;99953.38;5036527;28;20015;-61
2023/11/01 08:08:35;;;;;;;;;;;;;;;9.45;89.62;99962.44;5038587;28;20388;-64
2023/11/01 08:11:02;;;;;;;;;;;;;;;9.57;88.91;99966.91;5041878;28;19979;-64
2023/11/01 08:13:30;;;;;;;;;;;;;;;9.69;88.84;99960.03;5043003;28;20031;-64
2023/11/01 08:15:57;;;;;;;;;;;;;;;9.92;88.35;99966.38;5038242;28;19925;-64
2023/11/01 08:18:25;;;;;;;;;;;;;;;10.12;87.49;99962.41;5030114;28;19929;-66
2023/11/01 08:20:53;;;;;;;;;;;;;;;10.06;87.32;99953.16;5033054;28;20387;-65
2023/11/01 08:29:12;;;;;;;;;;;;;;;10.46;86.22;99950.47;5020158;28;19925;-63
2023/11/01 08:31:40;;;;;;;;;;;;;;;10.47;86.44;99946.03;5021856;28;20367;-63
2023/11/01 08:44:47;;;;;;;;;;;;;;;10.94;85.76;99939.22;5030098;28;19936;-64
2023/11/01 08:47:31;;;;;;;;;;;;;;;10.84;87.14;99941.66;5025287;28;19933;-63
2023/11/01 08:49:59;;;;;;;;;;;;;;;11.03;86.73;99941.19;5025673;28;19987;-62
2023/11/01 08:52:52;;;;;;;;;;;;;;;11.31;86.51;99943.53;5023804;28;19925;-64
2023/11/01 08:56:09;;;;;;;;;;;;;;;11.22;85.58;99949.47;5024964;28;19936;-64
2023/11/01 08:59:25;;;;;;;;;;;;;;;11.34;85.29;99948.56;5021359;28;20001;-62
2023/11/01 09:01:58;;;;;;;;;;;;;;;11.31;86.34;99942.69;5019542;28;19971;-64
2023/11/01 09:05:04;;;;;;;;;;;;;;;11.46;85.37;99951.28;5026082;28;19932;-63
2023/11/01 09:07:32;;;;;;;;;;;;;;;11.71;85.41;99947.66;5022392;28;20020;-64
2023/11/01 09:09:59;;;;;;;;;;;;;;;11.86;84.36;99947.41;5026088;28;19952;-64
2023/11/01 09:12:31;;;;;;;;;;;;;;;12.07;84.31;99952.03;5033431;28;19975;-64
2023/11/01 09:15:04;;;;;;;;;;;;;;;12.23;83.46;99949.03;5024657;28;19947;-64
2023/11/01 09:17:56;;;;;;;;;;;;;;;12.53;83.32;99946.69;5032490;28;20011;-64
2023/11/01 09:23:45;;;;;;;;;;;;;;;12.71;81.68;99943.56;5026955;28;20020;-64
2023/11/01 09:26:15;;;;;;;;;;;;;;;12.72;82.07;99950.53;5021028;28;20024;-64
2023/11/01 09:28:42;;;;;;;;;;;;;;;12.77;81.52;99943.91;5022311;28;19979;-65
2023/11/01 09:31:09;;;;;;;;;;;;;;;12.77;82.12;99940.44;5026410;28;19925;-64
2023/11/01 09:36:35;;;;;;;;;;;;;;;13.11;81.72;99935.97;5025210;28;19932;-64
2023/11/01 09:39:03;;;;;;;;;;;;;;;13.16;81.52;99937.25;5027829;28;19925;-64
2023/11/01 09:41:36;;;;;;;;;;;;;;;13.32;81.57;99931.59;5028507;28;19975;-63
2023/11/01 09:44:04;;;;;;;;;;;;;;;13.42;81.19;99924.59;5028173;28;19925;-64
2023/11/01 09:46:31;;;;;;;;;;;;;;;13.57;81.14;99929.59;5034773;28;19929;-64
2023/11/01 09:49:00;;;;;;;;;;;;;;;13.54;80.00;99920.09;5032208;28;20413;-63
2023/11/01 09:54:46;;;;;;;;;;;;;;;13.77;80.21;99920.81;5021912;28;19948;-64
2023/11/01 09:57:43;;;;;;;;;;;;;;;13.68;80.33;99925.06;5025261;28;20462;-64
2023/11/01 10:06:44;;;;;;;;;;;;;;;14.02;80.39;99906.38;5030982;28;19927;-65
2023/11/01 10:09:36;;;;;;;;;;;;;;;14.19;80.32;99911.09;5025934;28;19933;-65
2023/11/01 10:12:54;;;;;;;;;;;;;;;14.41;79.62;99909.25;5022585;28;20449;-61
2023/11/01 10:15:52;;;;;;;;;;;;;;;14.51;79.97;99906.69;5017959;28;19921;-59
2023/11/01 10:18:48;;;;;;;;;;;;;;;14.69;79.55;99899.78;5016414;28;19936;-59
2023/11/01 10:21:16;;;;;;;;;;;;;;;14.74;79.15;99900.22;5012629;28;19925;-59
2023/11/01 10:26:39;;;;;;;;;;;;;;;14.86;78.53;99888.53;5020266;28;19940;-60
2023/11/01 10:29:32;;;;;;;;;;;;;;;14.81;79.06;99893.38;5038007;28;19979;-59
2023/11/01 10:32:54;;;;;;;;;;;;;;;15.03;79.33;99887.00;5021705;28;19944;-61
2023/11/01 10:35:21;;;;;;;;;;;;;;;15.59;77.91;99878.41;5030978;28;19933;-61
2023/11/01 10:38:13;;;;;;;;;;;;;;;15.34;77.18;99878.97;5035608;28;19980;-61
2023/11/01 10:41:05;;;;;;;;;;;;;;;15.19;77.65;99878.53;5032874;28;19928;-63
2023/11/01 10:43:58;;;;;;;;;;;;;;;15.36;77.67;99875.22;5028335;28;19917;-63
2023/11/01 10:49:43;;;;;;;;;;;;;;;16.00;77.00;99865.81;5035911;28;19917;-61
2023/11/01 10:52:35;;;;;;;;;;;;;;;16.40;75.90;99854.91;5029766;28;19929;-62
2023/11/01 10:55:53;;;;;;;;;;;;;;;17.02;73.15;99851.63;5030260;28;20222;-61
2023/11/01 10:58:23;;;;;;;;;;;;;;;17.53;71.40;99844.81;5030530;28;19932;-62
2023/11/01 11:00:59;;;;;;;;;;;;;;;17.94;65.72;99851.28;5025999;28;19961;-59
2023/11/01 11:03:32;;;;;;;;;;;;;;;17.54;65.86;99846.47;5034105;28;19925;-63
2023/11/01 11:06:02;;;;;;;;;;;;;;;17.85;65.89;99847.75;5026338;28;19929;-62
2023/11/01 11:08:37;;;;;;;;;;;;;;;17.71;65.46;99837.63;5030729;28;19948;-60
2023/11/01 11:11:31;;;;;;;;;;;;;;;18.08;64.45;99829.41;5039218;28;20078;-61
2023/11/01 11:14:47;;;;;;;;;;;;;;;18.18;64.28;99816.78;5030877;28;19929;-61
2023/11/01 11:17:38;;;;;;;;;;;;;;;18.16;63.81;99818.78;5019228;28;19960;-60
2023/11/01 11:20:06;;;;;;;;;;;;;;;18.41;63.36;99825.06;5024782;28;20379;-61
2023/11/01 11:22:51;;;;;;;;;;;;;;;18.34;62.87;99816.06;5034206;28;20303;-62
2023/11/01 11:25:45;;;;;;;;;;;;;;;18.14;63.45;99814.59;5029301;28;20450;-59
2023/11/01 11:28:22;;;;;;;;;;;;;;;18.25;63.38;99816.19;5027376;28;19929;-60
2023/11/01 11:30:58;;;;;;;;;;;;;;;17.67;64.96;99815.81;5021265;28;20395;-60
2023/11/01 11:33:25;;;;;;;;;;;;;;;17.13;66.86;99817.69;5027197;28;19947;-61
2023/11/01 11:39:10;;;;;;;;;;;;;;;17.27;66.73;99807.50;5022582;28;19980;-61
2023/11/01 11:41:37;;;;;;;;;;;;;;;17.11;67.49;99814.38;5022662;28;20012;-61
2023/11/01 11:44:11;;;;;;;;;;;;;;;16.81;68.28;99812.06;5026216;28;20029;-67
2023/11/01 11:46:50;;;;;;;;;;;;;;;16.37;70.21;99803.88;5036057;28;19957;-61
2023/11/01 11:49:40;;;;;;;;;;;;;;;15.93;72.24;99801.81;5019552;28;19925;-59
2023/11/01 11:52:15;;;;;;;;;;;;;;;15.76;73.97;99799.06;5020239;28;20415;-59
2023/11/01 11:54:44;;;;;;;;;;;;;;;15.90;73.67;99801.28;5037702;28;20487;-57
2023/11/01 11:57:13;;;;;;;;;;;;;;;15.88;73.00;99792.63;5024972;28;20375;-62
2023/11/01 12:02:37;;;;;;;;;;;;;;;15.95;72.61;99783.09;5032786;28;19924;-60
2023/11/01 12:05:07;;;;;;;;;;;;;;;15.99;72.43;99795.13;5018561;28;20066;-60
2023/11/01 12:07:42;;;;;;;;;;;;;;;16.12;71.97;99778.81;5021835;28;19956;-61
2023/11/01 12:10:10;;;;;;;;;;;;;;;16.60;71.09;99785.72;5030294;28;20406;-60
2023/11/01 12:12:37;;;;;;;;;;;;;;;17.51;67.89;99785.56;5030727;28;19929;-61
2023/11/01 12:15:06;;;;;;;;;;;;;;;18.62;62.87;99782.00;5028509;28;19924;-61
2023/11/01 12:17:34;;;;;;;;;;;;;;;18.03;63.18;99781.09;5023433;28;20299;-60
2023/11/01 12:20:02;;;;;;;;;;;;;;;17.34;65.51;99780.16;5028800;28;19933;-62
2023/11/01 12:22:44;;;;;;;;;;;;;;;16.59;68.26;99771.59;5018852;28;19925;-60
2023/11/01 12:25:36;;;;;;;;;;;;;;;16.18;70.04;99764.97;5033214;28;19985;-59
2023/11/01 12:28:31;;;;;;;;;;;;;;;15.75;72.57;99769.06;5034256;28;20038;-59
2023/11/01 12:37:16;;;;;;;;;;;;;;;15.09;76.66;99766.38;5022211;28;19979;-61
2023/11/01 12:40:15;;;;;;;;;;;;;;;15.11;76.93;99754.63;5020756;28;19929;-60
2023/11/01 12:43:32;;;;;;;;;;;;;;;15.19;76.63;99753.94;5016178;28;19940;-59
2023/11/01 12:47:13;;;;;;;;;;;;;;;15.44;76.08;99752.47;5026036;28;19947;-62
2023/11/01 12:50:55;;;;;;;;;;;;;;;15.59;75.08;99743.09;5033692;28;19947;-59
2023/11/01 12:54:17;;;;;;;;;;;;;;;16.08;74.28;99749.09;5023982;28;19925;-62
2023/11/01 12:57:59;;;;;;;;;;;;;;;16.37;71.85;99743.63;5025550;28;19927;-63
2023/11/01 13:01:17;;;;;;;;;;;;;;;16.11;72.12;99738.16;5015960;28;20372;-63
2023/11/01 13:04:58;;;;;;;;;;;;;;;15.70;73.62;99739.47;5021488;28;20015;-62
2023/11/01 13:07:51;;;;;;;;;;;;;;;15.50;75.05;99743.97;5021180;28;20446;-61
2023/11/01 13:11:10;;;;;;;;;;;;;;;14.99;77.37;99736.34;5016690;28;20004;-64
2023/11/01 13:13:41;;;;;;;;;;;;;;;14.86;78.23;99747.22;5019577;28;19951;-63
2023/11/01 13:16:08;;;;;;;;;;;;;;;14.61;79.71;99738.84;5020013;28;19987;-63
2023/11/01 13:19:01;;;;;;;;;;;;;;;14.57;80.52;99739.28;5014962;28;20448;-63
2023/11/01 13:22:18;;;;;;;;;;;;;;;14.55;81.46;99734.13;5019009;28;20004;-62
2023/11/01 13:25:37;;;;;;;;;;;;;;;14.51;81.89;99732.72;5017717;28;19932;-62
2023/11/01 13:37:14;;;;;;;;;;;;;;;14.15;85.87;99728.84;5019219;28;19926;-56
2023/11/01 13:40:09;;;;;;;;;;;;;;;14.11;86.87;99736.22;5027471;28;19925;-59
2023/11/01 13:43:24;;;;;;;;;;;;;;;14.18;86.85;99723.25;5020003;28;19928;-60
2023/11/01 13:49:38;;;;;;;;;;;;;;;14.18;87.61;99716.19;5017363;28;19924;-58
2023/11/01 13:52:34;;;;;;;;;;;;;;;14.22;87.72;99716.72;5021158;28;19948;-59
2023/11/01 13:56:14;;;;;;;;;;;;;;;14.22;88.03;99716.72;5025122;28;20018;-60
2023/11/01 13:59:56;;;;;;;;;;;;;;;14.19;88.43;99715.22;5020027;28;20015;-60
2023/11/01 14:03:18;;;;;;;;;;;;;;;14.15;88.78;99712.97;5017868;28;19917;-60
2023/11/01 14:06:11;;;;;;;;;;;;;;;14.10;89.07;99712.53;5017016;28;19929;-61
2023/11/01 14:09:27;;;;;;;;;;;;;;;14.07;89.46;99713.63;5017902;28;20519;-59
2023/11/01 14:12:04;;;;;;;;;;;;;;;14.05;90.04;99712.94;5017493;28;20011;-61
2023/11/01 14:17:55;;;;;;;;;;;;;;;14.01;90.49;99698.31;5028230;28;20417;-62
2023/11/01 14:20:30;;;;;;;;;;;;;;;14.00;90.56;99696.59;5029483;28;19951;-60
2023/11/01 14:22:58;;;;;;;;;;;;;;;14.02;90.80;99699.97;5021901;28;19940;-62
2023/11/01 14:25:53;;;;;;;;;;;;;;;14.04;90.72;99697.19;5027197;28;19940;-60
2023/11/01 14:28:23;;;;;;;;;;;;;;;13.95;91.64;99693.53;5025776;28;20012;-65
2023/11/01 14:34:14;;;;;;;;;;;;;;;13.86;92.70;99684.59;5018805;28;19921;-62
2023/11/01 14:37:12;;;;;;;;;;;;;;;13.84;92.91;99688.34;5021491;28;19936;-62
2023/11/01 14:39:42;;;;;;;;;;;;;;;13.78;93.22;99679.16;5024235;28;19929;-65
2023/11/01 14:42:34;;;;;;;;;;;;;;;13.72;93.21;99682.31;5028006;28;19947;-63
2023/11/01 14:46:15;;;;;;;;;;;;;;;13.71;93.99;99682.47;5019256;28;19925;-63
2023/11/01 14:48:43;;;;;;;;;;;;;;;13.74;93.79;99679.56;5022475;28;19968;-65
2023/11/01 14:54:11;;;;;;;;;;;;;;;13.68;94.02;99676.44;5042389;28;19940;-64
2023/11/01 14:57:04;;;;;;;;;;;;;;;13.66;94.57;99667.81;5028649;28;19952;-64
2023/11/01 14:59:31;;;;;;;;;;;;;;;13.65;95.21;99670.63;5023541;28;19929;-63
2023/11/01 15:02:23;;;;;;;;;;;;;;;13.63;95.81;99665.44;5022638;28;19968;-64
2023/11/01 15:05:39;;;;;;;;;;;;;;;13.63;96.26;99656.66;5024636;28;19925;-62
2023/11/01 15:08:07;;;;;;;;;;;;;;;13.66;96.21;99656.41;5041685;28;19929;-62
2023/11/01 15:10:34;;;;;;;;;;;;;;;13.64;96.55;99656.56;5021001;28;19987;-65
2023/11/01 15:16:43;;;;;;;;;;;;;;;13.56;97.39;99647.63;5020141;28;19932;-64
2023/11/01 15:19:11;;;;;;;;;;;;;;;13.52;97.58;99648.84;5023611;28;19936;-63
2023/11/01 15:37:11;;;;;;;;;;;;;;;13.44;98.89;99623.06;5027621;28;20275;-63
2023/11/01 15:39:39;;;;;;;;;;;;;;;13.41;98.81;99618.88;5029392;28;19933;-65
2023/11/01 15:42:08;;;;;;;;;;;;;;;13.40;99.34;99614.56;5026566;28;19929;-65
2023/11/01 15:45:03;;;;;;;;;;;;;;;13.38;99.32;99613.88;5020948;28;19925;-64
2023/11/01 15:48:21;;;;;;;;;;;;;;;13.36;100.00;99614.94;5014967;28;20449;-63
2023/11/01 15:51:12;;;;;;;;;;;;;;;13.35;100.00;99613.28;5016276;28;19921;-62
2023/11/01 15:57:26;;;;;;;;;;;;;;;13.34;100.00;99590.47;5027571;28;19927;-64
2023/11/01 15:59:59;;;;;;;;;;;;;;;13.35;100.00;99600.91;5015901;28;19936;-63
2023/11/01 16:12:45;;;;;;;;;;;;;;;13.28;100.00;99597.09;5022245;28;19971;-64
2023/11/01 16:15:38;;;;;;;;;;;;;;;13.26;100.00;99596.41;5024261;28;19940;-63
2023/11/01 16:18:53;;;;;;;;;;;;;;;13.24;100.00;99592.22;5021869;28;19944;-64
2023/11/01 16:21:25;;;;;;;;;;;;;;;13.20;100.00;99590.81;5018544;28;19972;-64
2023/11/01 16:23:55;;;;;;;;;;;;;;;13.15;100.00;99592.03;5018186;28;19987;-64
2023/11/01 16:32:41;;;;;;;;;;;;;;;13.07;100.00;99583.09;5019976;28;19951;-63
2023/11/01 16:35:10;;;;;;;;;;;;;;;13.05;100.00;99585.84;5019310;28;20319;-63
2023/11/01 16:37:37;;;;;;;;;;;;;;;13.00;100.00;99587.22;5027757;28;20015;-65
2023/11/01 16:40:52;;;;;;;;;;;;;;;13.01;100.00;99588.88;5021471;28;19932;-65
2023/11/01 16:43:20;;;;;;;;;;;;;;;13.00;100.00;99588.03;5019685;28;20557;-64
2023/11/01 16:53:09;;;;;;;;;;;;;;;12.94;100.00;99583.28;5022169;28;19943;-64
2023/11/01 16:55:37;;;;;;;;;;;;;;;12.88;100.00;99581.19;5024137;28;20279;-63
2023/11/01 16:58:05;;;;;;;;;;;;;;;12.83;100.00;99583.34;5022479;28;20465;-64
2023/11/01 17:01:00;;;;;;;;;;;;;;;12.80;100.00;99587.13;5020423;28;20298;-66
2023/11/01 17:03:28;;;;;;;;;;;;;;;12.68;100.00;99580.22;5019401;28;20003;-65
2023/11/01 17:05:55;;;;;;;;;;;;;;;12.68;100.00;99582.84;5016955;28;20012;-61
2023/11/01 17:08:22;;;;;;;;;;;;;;;12.66;100.00;99580.34;5027988;28;19929;-64
2023/11/01 17:10:49;;;;;;;;;;;;;;;12.64;100.00;99582.28;5020094;28;19971;-65
2023/11/01 17:13:16;;;;;;;;;;;;;;;12.61;100.00;99585.19;5022286;28;19929;-64
2023/11/01 17:19:07;;;;;;;;;;;;;;;12.55;100.00;99584.84;5018773;28;19917;-64
2023/11/01 17:21:59;;;;;;;;;;;;;;;12.49;100.00;99596.78;5025365;28;19965;-64
2023/11/01 17:25:40;;;;;;;;;;;;;;;12.45;100.00;99599.78;5023147;28;20460;-64
2023/11/01 17:28:41;;;;;;;;;;;;;;;12.42;100.00;99603.50;5018377;28;19917;-65
2023/11/01 17:45:05;;;;;;;;;;;;;;;12.32;100.00;99598.16;5022565;28;19925;-64
2023/11/01 17:47:36;;;;;;;;;;;;;;;12.33;100.00;99591.06;5017705;28;19926;-65
2023/11/01 17:53:02;;;;;;;;;;;;;;;12.32;100.00;99589.41;5015465;28;20424;-65
2023/11/01 17:56:22;;;;;;;;;;;;;;;12.32;100.00;99592.88;5021971;28;20000;-65
2023/11/01 17:58:52;;;;;;;;;;;;;;;12.34;100.00;99592.78;5034903;28;20396;-63
2023/11/01 18:01:19;;;;;;;;;;;;;;;12.33;100.00;99585.78;5040207;28;19981;-64